Time;durP1;ratioP1;P1;durP2;ratioP2;P2;SDS_P1;SDS_P2;PMS_P1;PMS_P2;Temp;Humidity;BMP_temperature;BMP_pressure;BME280_temperature;BME280_humidity;BME280_pressure;Samples;Min_cycle;Max_cycle;Signal;HPM_P1;HPM_P2
2023/03/11 00:01:40;;;;;;;;;;;;;;;-142.75;100.00;77909.06;5049823;28;19925;-67
2023/03/11 00:04:06;;;;;;;;;;;;;;;-142.75;100.00;77922.88;5051069;28;20295;-67
2023/03/11 00:06:33;;;;;;;;;;;;;;;-142.75;100.00;77932.72;5051727;28;20445;-68
2023/03/11 00:08:58;;;;;;;;;;;;;;;-142.75;100.00;77938.63;5051593;28;20407;-67
2023/03/11 00:11:24;;;;;;;;;;;;;;;-142.75;100.00;77928.78;5052305;28;19929;-67
2023/03/11 00:13:49;;;;;;;;;;;;;;;-142.75;100.00;77928.78;5051465;28;19919;-67
2023/03/11 00:16:14;;;;;;;;;;;;;;;-142.75;100.00;77948.47;5051606;28;20343;-67
2023/03/11 00:18:39;;;;;;;;;;;;;;;-142.75;100.00;77936.66;5053080;28;20446;-69
2023/03/11 00:21:04;;;;;;;;;;;;;;;-142.75;100.00;77946.50;5051638;28;20027;-66
2023/03/11 00:23:30;;;;;;;;;;;;;;;-142.75;100.00;77952.41;5052906;28;19958;-68
2023/03/11 00:25:58;;;;;;;;;;;;;;;-142.75;100.00;77972.09;5051786;28;19986;-68
2023/03/11 00:28:25;;;;;;;;;;;;;;;-142.75;100.00;77970.13;5052953;28;19919;-67
2023/03/11 00:30:50;;;;;;;;;;;;;;;-142.75;100.00;77989.81;5052738;28;20299;-67
2023/03/11 00:33:16;;;;;;;;;;;;;;;-142.75;100.00;78017.38;5052841;28;19921;-67
2023/03/11 00:35:41;;;;;;;;;;;;;;;-142.75;100.00;78009.50;5052921;28;19967;-67
2023/03/11 00:38:10;;;;;;;;;;;;;;;-142.75;100.00;78015.41;5052761;28;20368;-68
2023/03/11 00:40:40;;;;;;;;;;;;;;;-142.75;100.00;78019.34;5052666;28;19913;-67
2023/03/11 00:43:05;;;;;;;;;;;;;;;-142.75;100.00;78035.09;5052562;28;19955;-66
2023/03/11 00:45:31;;;;;;;;;;;;;;;-142.75;100.00;78027.22;5052739;28;19944;-67
2023/03/11 00:47:56;;;;;;;;;;;;;;;-142.75;100.00;78042.97;5052567;28;20327;-67
2023/03/11 00:50:26;;;;;;;;;;;;;;;-142.75;100.00;78031.16;5051172;28;19923;-68
2023/03/11 00:52:52;;;;;;;;;;;;;;;-142.75;100.00;78041.00;5052393;28;19913;-67
2023/03/11 00:55:19;;;;;;;;;;;;;;;-142.75;100.00;78046.91;5051175;28;19919;-67
2023/03/11 00:57:45;;;;;;;;;;;;;;;-142.75;100.00;78027.22;5052284;28;20388;-67
2023/03/11 01:00:17;;;;;;;;;;;;;;;-142.75;100.00;78025.25;5051996;28;19916;-67
2023/03/11 01:02:42;;;;;;;;;;;;;;;-142.75;100.00;78031.16;5052233;28;20349;-67
2023/03/11 01:05:08;;;;;;;;;;;;;;;-142.75;100.00;78035.09;5050991;28;19995;-67
2023/03/11 01:07:34;;;;;;;;;;;;;;;-142.75;100.00;78039.03;5052250;28;19920;-67
2023/03/11 01:10:00;;;;;;;;;;;;;;;-142.75;100.00;78041.00;5052133;28;20320;-67
2023/03/11 01:12:25;;;;;;;;;;;;;;;-142.75;100.00;78037.06;5052157;28;19959;-67
2023/03/11 01:14:50;;;;;;;;;;;;;;;-142.75;100.00;78021.31;5052237;28;19941;-67
2023/03/11 01:17:15;;;;;;;;;;;;;;;-142.75;100.00;78048.88;5052254;28;20541;-68
2023/03/11 01:19:41;;;;;;;;;;;;;;;-142.75;100.00;78042.97;5052167;28;19920;-67
2023/03/11 01:22:06;;;;;;;;;;;;;;;-142.75;100.00;78054.81;5052099;28;19917;-67
2023/03/11 01:24:31;;;;;;;;;;;;;;;-142.75;100.00;78048.88;5050833;28;19960;-68
2023/03/11 01:26:56;;;;;;;;;;;;;;;-142.75;100.00;78060.72;5052079;28;19912;-67
2023/03/11 01:29:22;;;;;;;;;;;;;;;-142.75;100.00;78062.69;5051966;28;20300;-68
2023/03/11 01:31:47;;;;;;;;;;;;;;;-142.75;100.00;78060.72;5050495;28;19940;-67
2023/03/11 01:34:12;;;;;;;;;;;;;;;-142.75;100.00;78062.69;5051966;28;20300;-67
2023/03/11 01:36:37;;;;;;;;;;;;;;;-142.75;100.00;78060.72;5051996;28;20368;-67
2023/03/11 01:39:03;;;;;;;;;;;;;;;-142.75;100.00;78064.66;5051999;28;19913;-67
2023/03/11 01:41:28;;;;;;;;;;;;;;;-142.75;100.00;78070.56;5051709;28;20379;-67
2023/03/11 01:43:53;;;;;;;;;;;;;;;-142.75;100.00;78056.78;5050613;28;19966;-67
2023/03/11 01:46:23;;;;;;;;;;;;;;;-142.75;100.00;78064.66;5050670;28;19912;-68
2023/03/11 01:48:53;;;;;;;;;;;;;;;-142.75;100.00;78076.47;5050574;28;19963;-68
2023/03/11 01:51:23;;;;;;;;;;;;;;;-142.75;100.00;78078.44;5051534;28;19917;-67
2023/03/11 01:53:48;;;;;;;;;;;;;;;-142.75;100.00;78056.78;5051865;28;19912;-67
2023/03/11 01:56:14;;;;;;;;;;;;;;;-142.75;100.00;78064.66;5051775;28;19924;-67
2023/03/11 01:58:43;;;;;;;;;;;;;;;-142.75;100.00;78066.63;5051769;28;19913;-68
2023/03/11 02:01:09;;;;;;;;;;;;;;;-142.75;100.00;78058.72;5051748;28;20050;-67
2023/03/11 02:03:38;;;;;;;;;;;;;;;-142.75;100.00;78058.72;5051419;28;19967;-67
2023/03/11 02:06:05;;;;;;;;;;;;;;;-142.75;100.00;78062.69;5050497;28;19916;-67
2023/03/11 02:08:33;;;;;;;;;;;;;;;-142.75;100.00;78066.63;5051993;28;20342;-67
2023/03/11 02:10:59;;;;;;;;;;;;;;;-142.75;100.00;78070.56;5050311;28;19939;-69
2023/03/11 02:13:24;;;;;;;;;;;;;;;-142.75;100.00;78086.31;5054065;28;19917;-67
2023/03/11 02:15:50;;;;;;;;;;;;;;;-142.75;100.00;78086.31;5055604;28;19919;-67
2023/03/11 02:18:19;;;;;;;;;;;;;;;-142.75;100.00;78088.28;5055448;28;20372;-67
2023/03/11 02:20:48;;;;;;;;;;;;;;;-142.75;100.00;78094.19;5055405;28;19923;-67
2023/03/11 02:23:14;;;;;;;;;;;;;;;-142.75;100.00;78080.41;5055233;28;19956;-68
2023/03/11 02:25:39;;;;;;;;;;;;;;;-142.75;100.00;78074.50;5055140;28;19917;-67
2023/03/11 02:28:07;;;;;;;;;;;;;;;-142.75;100.00;78068.59;5055382;28;19913;-67
2023/03/11 02:30:33;;;;;;;;;;;;;;;-142.75;100.00;78058.72;5053646;28;19920;-67
2023/03/11 02:32:58;;;;;;;;;;;;;;;-142.75;100.00;78060.72;5053789;28;19912;-67
2023/03/11 02:35:24;;;;;;;;;;;;;;;-142.75;100.00;78054.81;5055118;28;19978;-67
2023/03/11 02:37:50;;;;;;;;;;;;;;;-142.75;100.00;78044.94;5055147;28;19912;-67
2023/03/11 02:40:21;;;;;;;;;;;;;;;-142.75;100.00;78048.88;5054954;28;20327;-68
2023/03/11 02:42:47;;;;;;;;;;;;;;;-142.75;100.00;78054.81;5054993;28;19966;-67
2023/03/11 02:45:15;;;;;;;;;;;;;;;-142.75;100.00;78056.78;5054861;28;20011;-67
2023/03/11 02:47:40;;;;;;;;;;;;;;;-142.75;100.00;78046.91;5054950;28;19913;-68
2023/03/11 02:50:08;;;;;;;;;;;;;;;-142.75;100.00;78042.97;5054684;28;20282;-67
2023/03/11 02:52:34;;;;;;;;;;;;;;;-142.75;100.00;78048.88;5053316;28;19913;-67
2023/03/11 02:54:59;;;;;;;;;;;;;;;-142.75;100.00;78058.72;5053108;28;19917;-67
2023/03/11 02:57:24;;;;;;;;;;;;;;;-142.75;100.00;78054.81;5054789;28;19959;-67
2023/03/11 02:59:49;;;;;;;;;;;;;;;-142.75;100.00;78058.72;5053091;28;19913;-67
2023/03/11 03:02:15;;;;;;;;;;;;;;;-142.75;100.00;78066.63;5054442;28;19963;-68
2023/03/11 03:04:40;;;;;;;;;;;;;;;-142.75;100.00;78066.63;5054414;28;19920;-67
2023/03/11 03:07:06;;;;;;;;;;;;;;;-142.75;100.00;78064.66;5054470;28;20444;-67
2023/03/11 03:09:31;;;;;;;;;;;;;;;-142.75;100.00;78074.50;5054410;28;19919;-67
2023/03/11 03:11:56;;;;;;;;;;;;;;;-142.75;100.00;78064.66;5052717;28;19920;-67
2023/03/11 03:14:21;;;;;;;;;;;;;;;-142.75;100.00;78074.50;5054049;28;19958;-68
2023/03/11 03:16:47;;;;;;;;;;;;;;;-142.75;100.00;78072.53;5054400;28;19981;-67
2023/03/11 03:19:12;;;;;;;;;;;;;;;-142.75;100.00;78074.50;5054213;28;20335;-67
2023/03/11 03:21:37;;;;;;;;;;;;;;;-142.75;100.00;78070.56;5054076;28;20400;-67
2023/03/11 03:24:03;;;;;;;;;;;;;;;-142.75;100.00;78080.41;5052524;28;19912;-68
2023/03/11 03:26:28;;;;;;;;;;;;;;;-142.75;100.00;78088.28;5054292;28;20420;-67
2023/03/11 03:28:53;;;;;;;;;;;;;;;-142.75;100.00;78080.41;5052810;28;19917;-67
2023/03/11 03:31:18;;;;;;;;;;;;;;;-142.75;100.00;78088.28;5052428;28;20020;-67
2023/03/11 03:33:44;;;;;;;;;;;;;;;-142.75;100.00;78090.25;5052712;28;20051;-67
2023/03/11 03:36:10;;;;;;;;;;;;;;;-142.75;100.00;78078.44;5052744;28;19924;-67
2023/03/11 03:38:35;;;;;;;;;;;;;;;-142.75;100.00;78080.41;5053710;28;20400;-67
2023/03/11 03:41:01;;;;;;;;;;;;;;;-142.75;100.00;78078.44;5053863;28;19975;-67
2023/03/11 03:43:26;;;;;;;;;;;;;;;-142.75;100.00;78084.34;5053588;28;20342;-67
2023/03/11 03:45:58;;;;;;;;;;;;;;;-142.75;100.00;78072.53;5053880;28;20323;-65
2023/03/11 03:48:24;;;;;;;;;;;;;;;-142.75;100.00;78078.44;5053686;28;19916;-67
2023/03/11 03:50:49;;;;;;;;;;;;;;;-142.75;100.00;78090.25;5052361;28;19917;-67
2023/03/11 03:53:14;;;;;;;;;;;;;;;-142.75;100.00;78086.31;5053458;28;19958;-67
2023/03/11 03:55:40;;;;;;;;;;;;;;;-142.75;100.00;78100.09;5053731;28;19920;-67
2023/03/11 03:58:05;;;;;;;;;;;;;;;-142.75;100.00;78094.19;5052350;28;19912;-67
2023/03/11 04:00:30;;;;;;;;;;;;;;;-142.75;100.00;78111.91;5053492;28;19913;-67
2023/03/11 04:02:56;;;;;;;;;;;;;;;-142.75;100.00;78109.94;5053450;28;19913;-67
2023/03/11 04:05:21;;;;;;;;;;;;;;;-142.75;100.00;78098.13;5053296;28;20007;-67
2023/03/11 04:07:46;;;;;;;;;;;;;;;-142.75;100.00;78107.97;5053187;28;20054;-67
2023/03/11 04:10:13;;;;;;;;;;;;;;;-142.75;100.00;78109.94;5053213;28;20011;-67
2023/03/11 04:12:38;;;;;;;;;;;;;;;-142.75;100.00;78115.84;5053176;28;19913;-67
2023/03/11 04:15:03;;;;;;;;;;;;;;;-142.75;100.00;78113.88;5052767;28;19916;-68
2023/03/11 04:17:29;;;;;;;;;;;;;;;-142.75;100.00;78115.84;5053295;28;19916;-67
2023/03/11 04:19:54;;;;;;;;;;;;;;;-142.75;100.00;78117.81;5053083;28;20015;-67
2023/03/11 04:22:19;;;;;;;;;;;;;;;-142.75;100.00;78129.63;5053018;28;19920;-67
2023/03/11 04:24:44;;;;;;;;;;;;;;;-142.75;100.00;78127.66;5053078;28;19936;-67
2023/03/11 04:27:10;;;;;;;;;;;;;;;-142.75;100.00;78133.56;5053014;28;19917;-67
2023/03/11 04:29:35;;;;;;;;;;;;;;;-142.75;100.00;78141.44;5052700;28;19917;-67
2023/03/11 04:32:00;;;;;;;;;;;;;;;-142.75;100.00;78147.34;5052737;28;19917;-67
2023/03/11 04:34:25;;;;;;;;;;;;;;;-142.75;100.00;78145.38;5051143;28;19913;-67
2023/03/11 04:36:52;;;;;;;;;;;;;;;-142.75;100.00;78141.44;5052436;28;19913;-67
2023/03/11 04:39:17;;;;;;;;;;;;;;;-142.75;100.00;78149.31;5052758;28;20003;-67
2023/03/11 04:41:43;;;;;;;;;;;;;;;-142.75;100.00;78141.44;5052489;28;19960;-67
2023/03/11 04:44:08;;;;;;;;;;;;;;;-142.75;100.00;78139.47;5051311;28;19913;-67
2023/03/11 04:46:33;;;;;;;;;;;;;;;-142.75;100.00;78155.22;5052747;28;19962;-67
2023/03/11 04:48:58;;;;;;;;;;;;;;;-142.75;100.00;78151.28;5052450;28;19947;-67
2023/03/11 04:51:23;;;;;;;;;;;;;;;-142.75;100.00;78153.25;5050862;28;19966;-67
2023/03/11 04:53:49;;;;;;;;;;;;;;;-142.75;100.00;78141.44;5052518;28;19913;-67
2023/03/11 04:56:14;;;;;;;;;;;;;;;-142.75;100.00;78151.28;5052498;28;19912;-68
2023/03/11 04:58:39;;;;;;;;;;;;;;;-142.75;100.00;78176.88;5052467;28;19912;-67
2023/03/11 05:01:04;;;;;;;;;;;;;;;-142.75;100.00;78178.84;5052140;28;20399;-66
2023/03/11 05:03:30;;;;;;;;;;;;;;;-142.75;100.00;78176.88;5052134;28;19967;-67
2023/03/11 05:05:59;;;;;;;;;;;;;;;-142.75;100.00;78180.81;5052207;28;19921;-67
2023/03/11 05:08:24;;;;;;;;;;;;;;;-142.75;100.00;78180.81;5052253;28;19924;-65
2023/03/11 05:10:51;;;;;;;;;;;;;;;-142.75;100.00;78172.94;5052101;28;19917;-67
2023/03/11 05:13:16;;;;;;;;;;;;;;;-142.75;100.00;78178.84;5052013;28;19920;-68
2023/03/11 05:15:44;;;;;;;;;;;;;;;-142.75;100.00;78176.88;5052133;28;20374;-67
2023/03/11 05:18:09;;;;;;;;;;;;;;;-142.75;100.00;78180.81;5052181;28;19913;-67
2023/03/11 05:20:35;;;;;;;;;;;;;;;-142.75;100.00;78182.81;5052000;28;20341;-68
2023/03/11 05:23:00;;;;;;;;;;;;;;;-142.75;100.00;78194.63;5051996;28;20603;-67
2023/03/11 05:25:25;;;;;;;;;;;;;;;-142.75;100.00;78192.66;5052105;28;19917;-68
2023/03/11 05:27:50;;;;;;;;;;;;;;;-142.75;100.00;78194.63;5051978;28;19939;-67
2023/03/11 05:30:16;;;;;;;;;;;;;;;-142.75;100.00;78194.63;5051751;28;20364;-68
2023/03/11 05:32:41;;;;;;;;;;;;;;;-142.75;100.00;78188.72;5052018;28;19913;-67
2023/03/11 05:35:06;;;;;;;;;;;;;;;-142.75;100.00;78228.09;5051957;28;19966;-67
2023/03/11 05:37:32;;;;;;;;;;;;;;;-142.75;100.00;78267.47;5051803;28;20384;-68
2023/03/11 05:39:57;;;;;;;;;;;;;;;-142.75;100.00;78253.69;5051846;28;20446;-67
2023/03/11 05:42:22;;;;;;;;;;;;;;;-142.75;100.00;78255.66;5050415;28;19913;-68
2023/03/11 05:44:47;;;;;;;;;;;;;;;-142.75;100.00;78253.69;5051881;28;20050;-67
2023/03/11 05:47:13;;;;;;;;;;;;;;;-142.75;100.00;78285.19;5053304;28;19955;-67
2023/03/11 05:49:38;;;;;;;;;;;;;;;-142.75;100.00;78265.50;5055229;28;19913;-67
2023/03/11 05:52:03;;;;;;;;;;;;;;;-142.75;100.00;78287.16;5054219;28;20423;-67
2023/03/11 05:54:28;;;;;;;;;;;;;;;-142.75;100.00;78291.09;5054283;28;19912;-68
2023/03/11 05:56:54;;;;;;;;;;;;;;;-142.75;100.00;78306.88;5054485;28;20043;-67
2023/03/11 05:59:19;;;;;;;;;;;;;;;-142.75;100.00;78302.94;5055780;28;19958;-67
2023/03/11 06:01:45;;;;;;;;;;;;;;;-142.75;100.00;78297.00;5055532;28;19913;-67
2023/03/11 06:04:10;;;;;;;;;;;;;;;-142.75;100.00;78291.09;5055614;28;19956;-67
2023/03/11 06:06:37;;;;;;;;;;;;;;;-142.75;100.00;78275.34;5055572;28;19920;-67
2023/03/11 06:09:02;;;;;;;;;;;;;;;-142.75;100.00;78277.31;5054370;28;19913;-68
2023/03/11 06:11:28;;;;;;;;;;;;;;;-142.75;100.00;78279.28;5055258;28;20442;-67
2023/03/11 06:13:54;;;;;;;;;;;;;;;-142.75;100.00;78295.06;5055430;28;19917;-67
2023/03/11 06:16:20;;;;;;;;;;;;;;;-142.75;100.00;78275.34;5055603;28;19913;-67
2023/03/11 06:18:45;;;;;;;;;;;;;;;-142.75;100.00;78273.38;5054191;28;19912;-67
2023/03/11 06:21:20;;;;;;;;;;;;;;;-142.75;100.00;78271.41;5055333;28;19913;-67
2023/03/11 06:23:46;;;;;;;;;;;;;;;-142.75;100.00;78253.69;5055152;28;20368;-67
2023/03/11 06:26:13;;;;;;;;;;;;;;;-142.75;100.00;78243.84;5054703;28;19939;-67
2023/03/11 06:28:38;;;;;;;;;;;;;;;-142.75;100.00;78216.28;5055317;28;20380;-67
2023/03/11 06:31:19;;;;;;;;;;;;;;;-142.75;100.00;78194.63;5054285;28;19932;-67
2023/03/11 06:33:45;;;;;;;;;;;;;;;-142.75;100.00;78184.78;5051590;28;19962;-67
2023/03/11 06:36:11;;;;;;;;;;;;;;;-142.75;100.00;78182.81;5054791;28;20011;-65
2023/03/11 06:38:36;;;;;;;;;;;;;;;-142.75;100.00;78176.88;5054403;28;19913;-67
2023/03/11 06:41:03;;;;;;;;;;;;;;;-142.75;100.00;78161.13;5053198;28;19913;-67
2023/03/11 06:43:30;;;;;;;;;;;;;;;-142.75;100.00;78141.44;5054809;28;20395;-67
2023/03/11 06:45:55;;;;;;;;;;;;;;;-142.75;100.00;78125.69;5054953;28;20392;-67
2023/03/11 06:48:20;;;;;;;;;;;;;;;-142.75;100.00;78109.94;5054849;28;20021;-65
2023/03/11 06:50:55;;;;;;;;;;;;;;;-142.75;100.00;78088.28;5054701;28;19917;-65
2023/03/11 06:53:21;;;;;;;;;;;;;;;-142.75;100.00;78094.19;5054671;28;19916;-66
2023/03/11 06:55:56;;;;;;;;;;;;;;;-142.75;100.00;78074.50;5053617;28;19912;-70
2023/03/11 06:58:21;;;;;;;;;;;;;;;-142.75;100.00;78060.72;5051812;28;19924;-68
2023/03/11 07:00:46;;;;;;;;;;;;;;;-142.75;100.00;78039.03;5052993;28;19917;-69
2023/03/11 07:03:11;;;;;;;;;;;;;;;-142.75;100.00;78017.38;5054422;28;20016;-68
2023/03/11 07:05:37;;;;;;;;;;;;;;;-142.75;100.00;77987.84;5054610;28;19919;-68
2023/03/11 07:08:02;;;;;;;;;;;;;;;-142.75;100.00;77954.38;5054659;28;19935;-68
2023/03/11 07:10:27;;;;;;;;;;;;;;;-142.75;100.00;77956.34;5054286;28;20007;-68
2023/03/11 07:12:53;;;;;;;;;;;;;;;-142.75;100.00;77942.56;5053213;28;19963;-68
2023/03/11 07:15:18;;;;;;;;;;;;;;;-142.75;100.00;77954.38;5054289;28;19913;-68
2023/03/11 07:17:43;;;;;;;;;;;;;;;-142.75;100.00;78013.44;5054365;28;19917;-68
2023/03/11 07:20:09;;;;;;;;;;;;;;;-142.75;100.00;77970.13;5054232;28;20001;-68
2023/03/11 07:22:34;;;;;;;;;;;;;;;-142.75;100.00;77946.50;5051251;28;20003;-69
2023/03/11 07:24:59;;;;;;;;;;;;;;;-142.75;100.00;77920.91;5054073;28;19913;-68
2023/03/11 07:27:26;;;;;;;;;;;;;;;-142.75;100.00;77915.00;5054206;28;19963;-68
2023/03/11 07:29:51;;;;;;;;;;;;;;;-142.75;100.00;77885.44;5053951;28;20402;-68
2023/03/11 07:32:16;;;;;;;;;;;;;;;-142.75;100.00;77822.44;5052722;28;19999;-68
2023/03/11 07:34:41;;;;;;;;;;;;;;;-142.75;100.00;77834.25;5054011;28;19959;-68
2023/03/11 07:37:07;;;;;;;;;;;;;;;-142.75;100.00;77787.00;5053695;28;19959;-68
2023/03/11 07:39:32;;;;;;;;;;;;;;;-142.75;100.00;77804.72;5052279;28;20269;-67
2023/03/11 07:41:57;;;;;;;;;;;;;;;-142.75;100.00;77755.50;5052013;28;20379;-67
2023/03/11 07:44:22;;;;;;;;;;;;;;;-142.75;100.00;77723.97;5053462;28;20368;-67
2023/03/11 07:46:48;;;;;;;;;;;;;;;-142.75;100.00;77712.16;5052375;28;19912;-68
2023/03/11 07:49:13;;;;;;;;;;;;;;;-142.75;100.00;77694.44;5053774;28;20467;-69
2023/03/11 07:51:39;;;;;;;;;;;;;;;-142.75;100.00;77653.09;5051789;28;19982;-69
2023/03/11 07:54:05;;;;;;;;;;;;;;;-142.75;100.00;77635.38;5053184;28;19935;-69
2023/03/11 07:56:31;;;;;;;;;;;;;;;-142.75;100.00;77590.09;5052074;28;19912;-69
2023/03/11 07:58:57;;;;;;;;;;;;;;;-142.75;99.25;77592.06;5053261;28;20417;-69
2023/03/11 08:01:24;;;;;;;;;;;;;;;-142.75;100.00;77611.75;5051745;28;19978;-68
2023/03/11 08:03:55;;;;;;;;;;;;;;;-142.75;100.00;77607.81;5053101;28;19971;-68
2023/03/11 08:06:22;;;;;;;;;;;;;;;-142.75;100.00;77619.63;5051816;28;19921;-69
2023/03/11 08:08:47;;;;;;;;;;;;;;;-142.75;100.00;77564.50;5051532;28;19913;-69
2023/03/11 08:11:13;;;;;;;;;;;;;;;-142.75;100.00;77597.97;5051639;28;19921;-69
2023/03/11 08:13:39;;;;;;;;;;;;;;;-142.75;100.00;77586.16;5053145;28;19966;-69
2023/03/11 08:16:05;;;;;;;;;;;;;;;-142.75;95.98;77588.13;5052863;28;19983;-64
2023/03/11 08:18:31;;;;;;;;;;;;;;;-142.75;94.86;77554.66;5051448;28;19920;-66
2023/03/11 08:20:56;;;;;;;;;;;;;;;-142.75;92.65;77540.88;5052757;28;19917;-67
2023/03/11 08:23:21;;;;;;;;;;;;;;;-142.75;83.36;77525.13;5049594;28;19917;-69
2023/03/11 08:25:46;;;;;;;;;;;;;;;-142.75;80.77;77546.78;5052837;28;19919;-66
2023/03/11 08:28:12;;;;;;;;;;;;;;;-142.75;78.12;77475.91;5053002;28;19913;-68
2023/03/11 08:30:37;;;;;;;;;;;;;;;-142.75;74.28;77519.22;5052691;28;19968;-68
2023/03/11 08:33:02;;;;;;;;;;;;;;;-142.75;74.05;77515.28;5051407;28;19913;-68
2023/03/11 08:35:27;;;;;;;;;;;;;;;-142.75;73.76;77493.63;5052842;28;19916;-69
2023/03/11 08:37:53;;;;;;;;;;;;;;;-142.75;72.81;77483.78;5052977;28;19913;-67
2023/03/11 08:40:18;;;;;;;;;;;;;;;-142.75;75.56;77464.09;5051485;28;19913;-68
2023/03/11 08:42:43;;;;;;;;;;;;;;;-142.75;72.99;77440.44;5051745;28;19924;-68
2023/03/11 08:45:09;;;;;;;;;;;;;;;-142.75;71.69;77393.19;5050800;28;20389;-69
2023/03/11 08:47:35;;;;;;;;;;;;;;;-142.75;73.55;77450.28;5052130;28;20027;-69
2023/03/11 08:50:01;;;;;;;;;;;;;;;-142.75;73.81;77418.78;5052131;28;19916;-68
2023/03/11 08:52:26;;;;;;;;;;;;;;;-142.75;75.03;77420.75;5052070;28;19995;-68
2023/03/11 08:54:51;;;;;;;;;;;;;;;-142.75;75.08;77479.84;5050330;28;20285;-68
2023/03/11 08:57:16;;;;;;;;;;;;;;;-142.75;76.35;77440.44;5050782;28;19973;-68
2023/03/11 08:59:41;;;;;;;;;;;;;;;-142.75;76.60;77448.34;5052096;28;19919;-68
2023/03/11 09:02:08;;;;;;;;;;;;;;;-142.75;71.78;77468.03;5052026;28;19982;-68
2023/03/11 09:04:33;;;;;;;;;;;;;;;-142.75;71.56;77460.13;5052000;28;19913;-68
2023/03/11 09:06:59;;;;;;;;;;;;;;;-142.75;70.73;77501.50;5050674;28;19920;-68
2023/03/11 09:09:24;;;;;;;;;;;;;;;-142.75;71.29;77460.13;5052174;28;19936;-68
2023/03/11 09:11:49;;;;;;;;;;;;;;;-142.75;72.70;77436.50;5051681;28;19916;-64
2023/03/11 09:14:14;;;;;;;;;;;;;;;-142.75;72.26;77483.78;5051696;28;19917;-69
2023/03/11 09:16:40;;;;;;;;;;;;;;;-142.75;72.78;77497.56;5050887;28;19920;-67
2023/03/11 09:19:06;;;;;;;;;;;;;;;-142.75;72.08;77489.69;5051927;28;20007;-67
2023/03/11 09:21:35;;;;;;;;;;;;;;;-142.75;72.54;77481.81;5050060;28;20456;-67
2023/03/11 09:24:00;;;;;;;;;;;;;;;-142.75;73.91;77483.78;5051973;28;19916;-68
2023/03/11 09:26:26;;;;;;;;;;;;;;;-142.75;75.75;77487.72;5052196;28;19966;-68
2023/03/11 09:28:51;;;;;;;;;;;;;;;-142.75;76.22;77473.94;5050822;28;20280;-68
2023/03/11 09:31:17;;;;;;;;;;;;;;;-142.75;76.48;77471.97;5051239;28;20346;-66
2023/03/11 09:33:44;;;;;;;;;;;;;;;-142.75;72.91;77566.47;5051190;28;21304;-68
2023/03/11 09:36:11;;;;;;;;;;;;;;;-142.75;72.52;77491.66;5051505;28;19920;-68
2023/03/11 09:38:37;;;;;;;;;;;;;;;-142.75;72.76;77491.66;5050802;28;19912;-67
2023/03/11 09:41:17;;;;;;;;;;;;;;;-142.75;74.32;77475.91;5051625;28;19991;-68
2023/03/11 09:43:48;;;;;;;;;;;;;;;-142.75;77.61;77460.13;5051551;28;20007;-68
2023/03/11 09:46:26;;;;;;;;;;;;;;;-142.75;74.01;77452.25;5051532;28;19923;-69
2023/03/11 09:48:59;;;;;;;;;;;;;;;-142.75;71.01;77422.72;5051752;28;19919;-68
2023/03/11 09:51:26;;;;;;;;;;;;;;;-142.75;71.03;77475.91;5051387;28;19921;-69
2023/03/11 09:53:56;;;;;;;;;;;;;;;-142.75;70.82;77460.13;5051917;28;19913;-68
2023/03/11 09:56:21;;;;;;;;;;;;;;;-142.75;72.18;77464.09;5051972;28;19913;-68
2023/03/11 09:58:49;;;;;;;;;;;;;;;-142.75;70.30;77507.41;5051727;28;19912;-69
2023/03/11 10:01:21;;;;;;;;;;;;;;;-142.75;71.70;77471.97;5051670;28;19917;-68
2023/03/11 10:03:48;;;;;;;;;;;;;;;-142.75;70.42;77542.84;5049908;28;19917;-68
2023/03/11 10:06:15;;;;;;;;;;;;;;;-142.75;71.44;77548.75;5051551;28;19935;-69
2023/03/11 10:08:46;;;;;;;;;;;;;;;-142.75;70.58;77527.09;5050208;28;19928;-66
2023/03/11 10:11:35;;;;;;;;;;;;;;;-142.75;71.59;77586.16;5049520;28;19917;-68
2023/03/11 10:14:03;;;;;;;;;;;;;;;-142.75;72.25;77523.16;5042597;28;19913;-68
2023/03/11 10:16:48;;;;;;;;;;;;;;;-142.75;73.85;77511.34;5048778;28;19999;-68
2023/03/11 10:19:49;;;;;;;;;;;;;;;-142.75;72.36;77515.28;5025847;28;20059;-68
2023/03/11 10:22:17;;;;;;;;;;;;;;;-142.75;73.23;77493.63;4982779;28;20022;-68
2023/03/11 10:24:49;;;;;;;;;;;;;;;-142.75;71.48;77568.44;5023356;28;20391;-67
2023/03/11 10:27:18;;;;;;;;;;;;;;;-142.75;75.94;77623.56;5031522;28;19917;-67
2023/03/11 10:30:01;;;;;;;;;;;;;;;-142.75;74.80;77619.63;5029889;28;19954;-68
2023/03/11 10:32:29;;;;;;;;;;;;;;;-142.75;73.19;77570.41;5031415;28;20385;-68
2023/03/11 10:35:17;;;;;;;;;;;;;;;-142.75;73.68;77603.88;5034639;28;19917;-70
2023/03/11 10:38:12;;;;;;;;;;;;;;;-142.75;75.25;77554.66;5032029;28;19924;-68
2023/03/11 10:40:42;;;;;;;;;;;;;;;-142.75;74.97;77556.63;5030155;28;19914;-66
2023/03/11 10:43:13;;;;;;;;;;;;;;;-142.75;75.24;77615.69;5070999;28;20233;-67
2023/03/11 10:45:43;;;;;;;;;;;;;;;-142.75;76.00;77603.88;5053438;28;19913;-68
2023/03/11 10:48:13;;;;;;;;;;;;;;;-142.75;75.08;77607.81;5053146;28;19913;-67
2023/03/11 10:50:45;;;;;;;;;;;;;;;-142.75;75.27;77635.38;5054353;28;20300;-68
2023/03/11 10:53:15;;;;;;;;;;;;;;;-142.75;76.95;77698.38;5051768;28;20364;-68
2023/03/11 10:55:48;;;;;;;;;;;;;;;-142.75;77.51;77700.34;5054697;28;19936;-68
2023/03/11 10:58:15;;;;;;;;;;;;;;;-142.75;76.61;77664.91;5054511;28;20396;-69
2023/03/11 11:00:41;;;;;;;;;;;;;;;-142.75;77.46;77657.03;5054573;28;19996;-68
2023/03/11 11:03:15;;;;;;;;;;;;;;;-142.75;76.00;77668.84;5054477;28;19995;-69
2023/03/11 11:05:40;;;;;;;;;;;;;;;-142.75;75.76;77607.81;5053367;28;19920;-69
2023/03/11 11:08:12;;;;;;;;;;;;;;;-142.75;77.58;77574.34;5054485;28;19913;-68
2023/03/11 11:10:47;;;;;;;;;;;;;;;-142.75;78.32;77521.19;5054200;28;19963;-69
2023/03/11 11:13:12;;;;;;;;;;;;;;;-142.75;76.25;77564.50;5052977;28;20404;-69
2023/03/11 11:15:42;;;;;;;;;;;;;;;-142.75;76.78;77515.28;5054387;28;20007;-69
2023/03/11 11:18:25;;;;;;;;;;;;;;;-142.75;73.82;77479.84;5054408;28;19927;-69
2023/03/11 11:20:55;;;;;;;;;;;;;;;-142.75;72.18;77436.50;5054190;28;19920;-68
2023/03/11 11:23:25;;;;;;;;;;;;;;;-142.75;73.78;77454.25;5054068;28;19967;-69
2023/03/11 11:25:55;;;;;;;;;;;;;;;-142.75;73.84;77357.75;5052739;28;19912;-69
2023/03/11 11:28:21;;;;;;;;;;;;;;;-142.75;69.05;77442.41;5054051;28;19919;-68
2023/03/11 11:30:56;;;;;;;;;;;;;;;-142.75;68.36;77308.53;5053862;28;20012;-68
2023/03/11 11:33:42;;;;;;;;;;;;;;;-142.75;69.41;77259.31;5053959;28;20285;-69
2023/03/11 11:36:12;;;;;;;;;;;;;;;-142.75;68.90;77214.03;5052408;28;19982;-69
2023/03/11 11:38:38;;;;;;;;;;;;;;;-142.75;64.57;77229.78;5054095;28;19920;-70
2023/03/11 11:41:04;;;;;;;;;;;;;;;-142.75;64.79;77245.53;5053886;28;20521;-69
2023/03/11 11:43:32;;;;;;;;;;;;;;;-142.75;67.88;77204.19;5052472;28;20342;-69
2023/03/11 11:46:00;;;;;;;;;;;;;;;-142.75;66.39;77170.72;5052358;28;19919;-69
2023/03/11 11:48:32;;;;;;;;;;;;;;;-142.75;62.58;77208.13;5052650;28;19916;-68
2023/03/11 11:51:01;;;;;;;;;;;;;;;-142.75;61.63;77172.69;5052913;28;19967;-68
2023/03/11 11:53:38;;;;;;;;;;;;;;;-142.75;63.29;77111.66;5053747;28;19927;-66
2023/03/11 11:56:03;;;;;;;;;;;;;;;-142.75;60.01;77097.88;5053703;28;19966;-65
2023/03/11 11:58:29;;;;;;;;;;;;;;;-142.75;56.70;77088.03;5053511;28;19913;-65
2023/03/11 12:00:54;;;;;;;;;;;;;;;-142.75;59.98;77188.44;5053556;28;19916;-63
2023/03/11 12:03:19;;;;;;;;;;;;;;;-142.75;57.42;77174.66;5052007;28;19912;-66
2023/03/11 12:05:55;;;;;;;;;;;;;;;-142.75;58.70;77054.56;5053507;28;19913;-65
2023/03/11 12:08:35;;;;;;;;;;;;;;;-142.75;56.88;77038.81;5053557;28;19913;-63
2023/03/11 12:11:04;;;;;;;;;;;;;;;-142.75;57.10;76938.41;5053273;28;19924;-67
2023/03/11 12:13:29;;;;;;;;;;;;;;;-142.75;48.57;77038.81;5051701;28;19931;-66
2023/03/11 12:16:00;;;;;;;;;;;;;;;-142.75;53.38;76962.03;5052761;28;19921;-66
2023/03/11 12:18:29;;;;;;;;;;;;;;;-142.75;51.00;76934.47;5052808;28;19917;-66
2023/03/11 12:20:55;;;;;;;;;;;;;;;-142.75;51.22;76887.22;5053066;28;19916;-67